createdAt,value
2023-05-19T00:01:16.958Z,101332.97
2023-05-19T00:04:20.187Z,101323.75
2023-05-19T00:07:30.613Z,101316.78
2023-05-19T00:10:33.918Z,101311.88
2023-05-19T00:13:37.256Z,101311.25
2023-05-19T00:16:40.363Z,101306.75
2023-05-19T00:19:45.317Z,101305.09
2023-05-19T00:22:48.884Z,101311.88
2023-05-19T00:25:52.455Z,101310.41
2023-05-19T00:28:55.425Z,101304.72
2023-05-19T00:31:58.282Z,101310.84
2023-05-19T00:35:01.643Z,101305.31
2023-05-19T00:38:04.463Z,101310.59
2023-05-19T00:41:07.512Z,101305.88
2023-05-19T00:44:10.336Z,101298.53
2023-05-19T00:47:13.758Z,101300.78
2023-05-19T00:50:16.679Z,101292.19
2023-05-19T00:53:19.722Z,101286.47
2023-05-19T00:56:23.237Z,101293.63
2023-05-19T00:59:26.368Z,101291.16
2023-05-19T01:02:29.959Z,101284.81
2023-05-19T01:05:33.434Z,101293.81
2023-05-19T01:08:39.022Z,101291.34
2023-05-19T01:11:41.792Z,101293.41
2023-05-19T01:14:45.261Z,101295.44
2023-05-19T01:18:01.964Z,101296.91
2023-05-19T01:21:17.234Z,101296.06
2023-05-19T01:24:24.947Z,101304.25
2023-05-19T01:27:56.188Z,101296.03
2023-05-19T01:31:00.469Z,101286.63
2023-05-19T01:34:04.961Z,101288.47
2023-05-19T01:37:09.024Z,101290.34
2023-05-19T01:40:12.321Z,101286.44
2023-05-19T01:43:24.350Z,101283.59
2023-05-19T01:46:27.215Z,101280.53
2023-05-19T01:49:30.139Z,101276.44
2023-05-19T01:52:33.924Z,101279.31
2023-05-19T01:55:49.841Z,101272.34
2023-05-19T01:59:03.610Z,101282.78
2023-05-19T02:02:26.896Z,101277.66
2023-05-19T02:06:12.495Z,101271.94
2023-05-19T02:09:27.401Z,101280.50
2023-05-19T02:12:36.296Z,101287.28
2023-05-19T02:15:44.955Z,101284.63
2023-05-19T02:18:48.463Z,101292.19
2023-05-19T02:21:52.365Z,101296.72
2023-05-19T02:24:57.918Z,101297.97
2023-05-19T02:28:01.127Z,101296.28
2023-05-19T02:31:08.916Z,101290.38
2023-05-19T02:34:11.801Z,101282.56
2023-05-19T02:37:15.506Z,101280.94
2023-05-19T02:40:19.816Z,101278.06
2023-05-19T02:43:22.681Z,101273.38
2023-05-19T02:46:25.677Z,101287.28
2023-05-19T02:49:31.110Z,101287.28
2023-05-19T02:52:34.054Z,101288.31
2023-05-19T02:55:37.511Z,101287.91
2023-05-19T02:58:43.312Z,101289.94
2023-05-19T03:01:47.794Z,101293.66
2023-05-19T03:04:51.157Z,101298.75
2023-05-19T03:07:53.962Z,101301.19
2023-05-19T03:10:57.376Z,101303.69
2023-05-19T03:14:00.157Z,101305.94
2023-05-19T03:17:04.541Z,101310.25
2023-05-19T03:20:08.223Z,101316.34
2023-05-19T03:23:13.095Z,101312.69
2023-05-19T03:26:15.993Z,101325.81
2023-05-19T03:29:19.123Z,101318.41
2023-05-19T03:32:23.379Z,101322.50
2023-05-19T03:35:26.253Z,101325.19
2023-05-19T03:38:29.178Z,101320.28
2023-05-19T03:41:34.196Z,101328.22
2023-05-19T03:44:38.304Z,101327.63
2023-05-19T03:47:41.487Z,101333.97
2023-05-19T03:51:04.524Z,101326.81
2023-05-19T03:54:07.538Z,101326.63
2023-05-19T03:57:11.394Z,101332.75
2023-05-19T04:00:14.967Z,101330.28
2023-05-19T04:03:19.112Z,101331.31
2023-05-19T04:06:22.249Z,101329.25
2023-05-19T04:09:26.580Z,101330.88
2023-05-19T04:12:30.942Z,101329.06
2023-05-19T04:15:34.104Z,101329.47
2023-05-19T04:18:36.938Z,101323.91
2023-05-19T04:21:40.640Z,101328.44
2023-05-19T04:24:43.486Z,101335.41
2023-05-19T04:27:48.362Z,101339.69
2023-05-19T04:30:52.778Z,101345.25
2023-05-19T04:33:55.714Z,101351.78
2023-05-19T04:36:59.327Z,101364.28
2023-05-19T04:40:02.470Z,101355.06
2023-05-19T04:43:07.490Z,101359.78
2023-05-19T04:46:13.739Z,101362.81
2023-05-19T04:49:19.382Z,101367.75
2023-05-19T04:52:22.350Z,101368.19
2023-05-19T04:55:26.548Z,101362.22
2023-05-19T04:58:30.309Z,101363.03
2023-05-19T05:01:34.013Z,101370.63
2023-05-19T05:04:42.593Z,101373.69
2023-05-19T05:07:46.124Z,101377.59
2023-05-19T05:10:53.061Z,101377.31
2023-05-19T05:13:58.459Z,101381.41
2023-05-19T05:17:04.503Z,101392.00
2023-05-19T05:20:08.454Z,101383.19
2023-05-19T05:23:15.401Z,101388.00
2023-05-19T05:26:24.134Z,101386.94
2023-05-19T05:29:32.526Z,101386.28
2023-05-19T05:32:36.700Z,101393.59
2023-05-19T05:35:44.608Z,101393.28
2023-05-19T05:38:50.401Z,101396.13
2023-05-19T05:41:54.110Z,101394.63
2023-05-19T05:44:57.222Z,101386.56
2023-05-19T05:48:00.684Z,101390.09
2023-05-19T05:51:07.404Z,101392.31
2023-05-19T05:54:15.267Z,101389.47
2023-05-19T05:57:21.911Z,101383.50
2023-05-19T06:00:28.130Z,101393.53
2023-05-19T06:04:39.302Z,101394.00
2023-05-19T06:07:54.122Z,101392.47
2023-05-19T06:11:01.264Z,101403.09
2023-05-19T06:14:06.121Z,101401.47
2023-05-19T06:17:44.492Z,101395.91
2023-05-19T06:20:48.942Z,101397.44
2023-05-19T06:23:52.637Z,101399.19
2023-05-19T06:31:39.610Z,101393.28
2023-05-19T06:34:57.470Z,101384.66
2023-05-19T06:38:02.784Z,101385.97
2023-05-19T06:41:09.198Z,101381.13
2023-05-19T06:44:12.293Z,101406.94
2023-05-19T06:47:15.836Z,101423.88
2023-05-19T06:50:20.723Z,101410.13
2023-05-19T06:53:25.348Z,101410.06
2023-05-19T06:56:29.484Z,101406.59
2023-05-19T07:03:12.378Z,101400.00
2023-05-19T07:06:17.074Z,101404.88
2023-05-19T07:09:22.264Z,101404.19
2023-05-19T07:12:26.870Z,101403.97
2023-05-19T07:15:30.036Z,101396.75
2023-05-19T07:18:32.939Z,101391.94
2023-05-19T07:21:36.450Z,101385.66
2023-05-19T07:24:39.426Z,101382.63
2023-05-19T07:27:42.312Z,101392.75
2023-05-19T07:30:46.893Z,101383.63
2023-05-19T07:33:54.285Z,101382.56
2023-05-19T07:36:57.756Z,101381.66
2023-05-19T07:40:00.665Z,101384.31
2023-05-19T07:43:03.570Z,101383.47
2023-05-19T07:46:07.424Z,101385.06
2023-05-19T07:49:10.293Z,101382.16
2023-05-19T07:52:13.150Z,101394.06
2023-05-19T07:55:19.588Z,101397.78
2023-05-19T07:58:22.662Z,101397.91
2023-05-19T08:01:26.381Z,101408.22
2023-05-19T08:04:29.288Z,101405.03
2023-05-19T08:07:39.403Z,101398.38
2023-05-19T08:10:42.448Z,101394.53
2023-05-19T08:13:47.899Z,101391.66
2023-05-19T08:16:51.017Z,101391.41
2023-05-19T08:20:02.238Z,101387.81
2023-05-19T08:23:11.302Z,101383.41
2023-05-19T08:26:14.162Z,101387.63
2023-05-19T08:29:17.026Z,101378.88
2023-05-19T08:32:19.969Z,101375.38
2023-05-19T08:35:22.905Z,101387.66
2023-05-19T08:38:26.649Z,101376.50
2023-05-19T08:41:29.571Z,101373.06
2023-05-19T08:44:32.476Z,101366.38
2023-05-19T08:47:36.221Z,101372.78
2023-05-19T08:50:42.196Z,101370.47
2023-05-19T08:53:50.672Z,101356.91
2023-05-19T08:56:55.305Z,101365.25
2023-05-19T09:00:00.682Z,101358.28
2023-05-19T09:06:15.594Z,101352.47
2023-05-19T09:09:20.316Z,101353.88
2023-05-19T09:12:25.349Z,101339.88
2023-05-19T09:15:39.374Z,101343.59
2023-05-19T09:18:56.677Z,101345.47
2023-05-19T09:22:05.420Z,101337.47
2023-05-19T09:25:22.813Z,101337.84
2023-05-19T09:28:29.747Z,101347.59
2023-05-19T09:31:36.179Z,101337.50
2023-05-19T09:34:43.058Z,101337.69
2023-05-19T09:37:46.748Z,101333.28
2023-05-19T09:41:02.678Z,101327.75
2023-05-19T09:44:07.534Z,101325.41
2023-05-19T09:47:14.301Z,101315.88
2023-05-19T09:50:17.213Z,101315.34
2023-05-19T09:53:22.046Z,101315.59
2023-05-19T09:56:25.704Z,101310.56
2023-05-19T09:59:38.045Z,101316.63
2023-05-19T10:02:45.787Z,101317.22
2023-05-19T10:05:49.931Z,101317.25
2023-05-19T10:09:26.437Z,101311.53
2023-05-19T10:12:31.431Z,101295.97
2023-05-19T10:15:57.204Z,101292.41
2023-05-19T10:19:03.074Z,101291.50
2023-05-19T10:22:10.277Z,101280.56
2023-05-19T10:25:18.713Z,101277.41
2023-05-19T10:28:26.802Z,101274.38
2023-05-19T10:31:32.017Z,101265.81
2023-05-19T10:34:50.597Z,101276.94
2023-05-19T10:38:17.833Z,101275.72
2023-05-19T10:41:31.861Z,101279.38
2023-05-19T10:44:47.556Z,101269.34
2023-05-19T10:47:51.811Z,101273.88
2023-05-19T10:50:56.449Z,101275.34
2023-05-19T10:54:03.086Z,101286.53
2023-05-19T10:57:07.192Z,101285.81
2023-05-19T11:00:28.601Z,101279.00
2023-05-19T11:03:44.777Z,101268.25
2023-05-19T11:06:51.897Z,101266.50
2023-05-19T11:12:01.673Z,101262.75
2023-05-19T11:18:38.848Z,101271.53
2023-05-19T11:21:52.911Z,101263.72
2023-05-19T11:24:56.089Z,101270.44
2023-05-19T11:27:59.423Z,101272.78
2023-05-19T11:31:03.810Z,101257.34
2023-05-19T11:34:10.453Z,101252.50
2023-05-19T11:37:13.213Z,101249.06
2023-05-19T11:40:16.141Z,101246.75
2023-05-19T11:43:19.048Z,101245.94
2023-05-19T11:46:22.382Z,101252.09
2023-05-19T11:49:29.774Z,101249.47
2023-05-19T11:52:32.678Z,101246.13
2023-05-19T11:55:35.478Z,101245.88
2023-05-19T11:58:38.365Z,101233.97
2023-05-19T12:01:41.148Z,101226.63
2023-05-19T12:04:44.265Z,101234.19
2023-05-19T12:07:49.744Z,101225.22
2023-05-19T12:10:52.718Z,101222.44
2023-05-19T12:14:01.796Z,101211.91
2023-05-19T12:17:16.106Z,101205.84
2023-05-19T12:20:21.051Z,101188.72
2023-05-19T12:23:24.966Z,101199.59
2023-05-19T12:26:27.892Z,101189.41
2023-05-19T12:29:31.991Z,101193.91
2023-05-19T12:32:37.938Z,101190.72
2023-05-19T12:35:42.676Z,101186.47
2023-05-19T12:38:47.850Z,101186.97
2023-05-19T12:41:50.887Z,101191.75
2023-05-19T12:44:54.861Z,101194.31
2023-05-19T12:47:57.891Z,101177.13
2023-05-19T12:51:00.726Z,101191.34
2023-05-19T12:54:06.835Z,101190.25
2023-05-19T12:57:12.785Z,101186.59
2023-05-19T13:00:36.839Z,101187.94
2023-05-19T13:05:00.162Z,101186.44
2023-05-19T13:08:27.980Z,101188.28
2023-05-19T13:11:30.897Z,101174.94
2023-05-19T13:14:33.667Z,101185.25
2023-05-19T13:17:37.025Z,101179.16
2023-05-19T13:20:42.112Z,101173.59
2023-05-19T13:23:47.837Z,101172.28
2023-05-19T13:26:50.722Z,101175.19
2023-05-19T13:29:53.512Z,101168.41
2023-05-19T13:32:56.427Z,101169.59
2023-05-19T13:36:02.560Z,101163.22
2023-05-19T13:39:05.451Z,101162.41
2023-05-19T13:46:15.865Z,101152.41
2023-05-19T13:49:18.807Z,101146.25
2023-05-19T13:52:23.876Z,101148.34
2023-05-19T13:55:27.597Z,101150.19
2023-05-19T13:58:32.987Z,101141.84
2023-05-19T14:01:35.911Z,101143.69
2023-05-19T14:04:39.605Z,101138.09
2023-05-19T14:07:42.768Z,101135.06
2023-05-19T14:10:48.863Z,101133.47
2023-05-19T14:13:53.049Z,101132.09
2023-05-19T14:16:56.245Z,101126.22
2023-05-19T14:20:00.738Z,101118.50
2023-05-19T14:23:03.618Z,101121.06
2023-05-19T14:26:06.456Z,101121.47
2023-05-19T14:29:09.255Z,101120.56
2023-05-19T14:32:12.087Z,101118.84
2023-05-19T14:35:14.843Z,101116.47
2023-05-19T14:38:17.738Z,101118.94
2023-05-19T14:41:21.615Z,101112.75
2023-05-19T14:44:24.383Z,101117.91
2023-05-19T14:47:27.477Z,101122.78
2023-05-19T14:50:30.761Z,101121.53
2023-05-19T14:53:33.752Z,101126.69
2023-05-19T14:56:36.509Z,101118.91
2023-05-19T14:59:39.598Z,101121.06
2023-05-19T15:02:42.652Z,101129.22
2023-05-19T15:05:45.990Z,101132.44
2023-05-19T15:08:49.175Z,101123.09
2023-05-19T15:11:51.962Z,101127.00
2023-05-19T15:14:54.756Z,101119.66
2023-05-19T15:17:57.671Z,101127.00
2023-05-19T15:21:00.504Z,101120.28
2023-05-19T15:24:03.325Z,101115.84
2023-05-19T15:27:06.307Z,101120.19
2023-05-19T15:30:09.335Z,101115.50
2023-05-19T15:33:13.092Z,101109.31
2023-05-19T15:36:16.808Z,101105.94
2023-05-19T15:39:19.826Z,101115.19
2023-05-19T15:42:22.680Z,101112.75
2023-05-19T15:45:25.492Z,101114.34
2023-05-19T15:48:29.176Z,101111.81
2023-05-19T15:51:32.096Z,101106.63
2023-05-19T15:54:34.975Z,101100.81
2023-05-19T15:57:37.880Z,101097.50
2023-05-19T16:00:40.738Z,101104.31
2023-05-19T16:03:44.096Z,101108.69
2023-05-19T16:06:47.158Z,101110.81
2023-05-19T16:09:50.261Z,101100.81
2023-05-19T16:12:53.047Z,101093.25
2023-05-19T16:15:56.186Z,101101.09
2023-05-19T16:18:59.235Z,101093.56
2023-05-19T16:22:02.094Z,101097.31
2023-05-19T16:25:05.526Z,101096.47
2023-05-19T16:28:08.401Z,101104.31
2023-05-19T16:31:11.372Z,101105.91
2023-05-19T16:34:17.023Z,101104.31
2023-05-19T16:37:19.814Z,101102.94
2023-05-19T16:40:22.623Z,101096.13
2023-05-19T16:43:26.443Z,101103.13
2023-05-19T16:46:31.160Z,101099.34
2023-05-19T16:49:34.441Z,101103.13
2023-05-19T16:52:37.285Z,101105.22
2023-05-19T16:55:40.130Z,101094.94
2023-05-19T16:58:42.881Z,101098.41
2023-05-19T17:01:45.955Z,101094.88
2023-05-19T17:04:48.779Z,101093.81
2023-05-19T17:07:51.811Z,101090.03
2023-05-19T17:10:54.699Z,101097.00
2023-05-19T17:13:57.684Z,101089.66
2023-05-19T17:17:00.717Z,101084.53
2023-05-19T17:20:04.357Z,101084.97
2023-05-19T17:23:08.424Z,101087.63
2023-05-19T17:26:11.185Z,101087.81
2023-05-19T17:29:14.046Z,101086.19
2023-05-19T17:32:17.464Z,101086.38
2023-05-19T17:35:20.364Z,101074.97
2023-05-19T17:38:23.243Z,101082.34
2023-05-19T17:41:26.404Z,101083.91
2023-05-19T17:44:29.189Z,101075.16
2023-05-19T17:47:32.102Z,101079.94
2023-05-19T17:50:35.156Z,101080.03
2023-05-19T17:53:38.688Z,101083.91
2023-05-19T17:56:44.565Z,101077.31
2023-05-19T17:59:47.624Z,101077.50
2023-05-19T18:02:51.065Z,101073.06
2023-05-19T18:05:54.073Z,101085.25
2023-05-19T18:08:59.374Z,101083.78
2023-05-19T18:12:02.515Z,101079.88
2023-05-19T18:15:06.297Z,101088.50
2023-05-19T18:18:10.762Z,101101.28
2023-05-19T18:21:17.995Z,101099.50
2023-05-19T18:24:20.807Z,101104.97
2023-05-19T18:27:23.626Z,101109.19
2023-05-19T18:30:26.490Z,101106.78
2023-05-19T18:33:31.058Z,101105.81
2023-05-19T18:36:35.879Z,101115.78
2023-05-19T18:39:38.706Z,101112.09
2023-05-19T18:42:41.625Z,101121.34
2023-05-19T18:45:48.154Z,101118.22
2023-05-19T18:48:51.046Z,101110.22
2023-05-19T18:51:54.192Z,101113.59
2023-05-19T18:54:57.075Z,101117.59
2023-05-19T18:57:59.988Z,101123.31
2023-05-19T19:01:02.937Z,101126.47
2023-05-19T19:04:05.829Z,101128.09
2023-05-19T19:07:08.633Z,101122.88
2023-05-19T19:10:11.894Z,101133.94
2023-05-19T19:13:14.661Z,101129.94
2023-05-19T19:16:17.548Z,101130.56
2023-05-19T19:19:20.856Z,101132.31
2023-05-19T19:22:23.684Z,101124.88
2023-05-19T19:25:26.408Z,101130.91
2023-05-19T19:28:29.364Z,101125.00
2023-05-19T19:31:33.501Z,101134.06
2023-05-19T19:34:36.453Z,101132.09
2023-05-19T19:37:39.203Z,101128.25
2023-05-19T19:40:42.094Z,101137.56
2023-05-19T19:43:44.840Z,101133.38
2023-05-19T19:46:49.197Z,101126.50
2023-05-19T19:49:52.106Z,101136.38
2023-05-19T19:52:54.902Z,101126.22
2023-05-19T19:55:58.338Z,101132.16
2023-05-19T19:59:01.679Z,101128.84
2023-05-19T20:02:48.348Z,101125.34
2023-05-19T20:06:26.190Z,101120.66
2023-05-19T20:09:30.920Z,101125.50
2023-05-19T20:12:34.792Z,101128.63
2023-05-19T20:15:41.669Z,101131.97
2023-05-19T20:18:44.680Z,101138.59
2023-05-19T20:21:47.762Z,101144.31
2023-05-19T20:24:50.640Z,101142.69
2023-05-19T20:27:53.374Z,101140.06
2023-05-19T20:30:56.306Z,101125.19
2023-05-19T20:34:00.777Z,101120.28
2023-05-19T20:37:04.472Z,101113.88
2023-05-19T20:40:08.517Z,101121.00
2023-05-19T20:43:11.438Z,101119.00
2023-05-19T20:46:14.402Z,101126.22
2023-05-19T20:49:17.788Z,101129.66
2023-05-19T20:52:20.656Z,101126.22
2023-05-19T20:55:23.489Z,101124.50
2023-05-19T20:58:30.288Z,101119.53
2023-05-19T21:01:33.278Z,101122.34
2023-05-19T21:04:37.427Z,101118.56
2023-05-19T21:07:40.251Z,101117.63
2023-05-19T21:10:43.139Z,101110.13
2023-05-19T21:13:45.897Z,101107.41
2023-05-19T21:16:49.779Z,101109.72
2023-05-19T21:19:58.299Z,101106.91
2023-05-19T21:23:01.158Z,101105.38
2023-05-19T21:26:06.680Z,101108.66
2023-05-19T21:29:09.998Z,101111.72
2023-05-19T21:32:12.887Z,101106.16
2023-05-19T21:35:16.047Z,101114.09
2023-05-19T21:38:23.882Z,101119.50
2023-05-19T21:41:27.205Z,101122.66
2023-05-19T21:44:31.863Z,101116.94
2023-05-19T21:47:34.739Z,101113.50
2023-05-19T21:50:38.501Z,101111.50
2023-05-19T21:53:41.396Z,101118.69
2023-05-19T21:56:44.172Z,101114.97
2023-05-19T21:59:47.124Z,101122.59
2023-05-19T22:02:49.938Z,101121.25
2023-05-19T22:05:55.335Z,101114.13
2023-05-19T22:09:01.368Z,101100.84
2023-05-19T22:12:04.540Z,101100.03
2023-05-19T22:15:07.892Z,101109.09
2023-05-19T22:18:11.899Z,101116.56
2023-05-19T22:21:14.804Z,101100.94
2023-05-19T22:24:18.686Z,101105.06
2023-05-19T22:27:21.626Z,101111.59
2023-05-19T22:30:24.498Z,101102.00
2023-05-19T22:33:27.493Z,101102.19
2023-05-19T22:36:31.380Z,101096.22
2023-05-19T22:39:34.318Z,101096.22
2023-05-19T22:42:37.233Z,101106.44
2023-05-19T22:45:40.057Z,101105.28
2023-05-19T22:48:42.829Z,101104.63
2023-05-19T22:51:45.687Z,101107.91
2023-05-19T22:54:48.468Z,101102.84
2023-05-19T22:57:51.364Z,101102.09
2023-05-19T23:00:54.089Z,101106.88
2023-05-19T23:03:56.916Z,101109.00
2023-05-19T23:07:00.203Z,101112.34
2023-05-19T23:10:04.488Z,101103.22
2023-05-19T23:13:08.466Z,101104.28
2023-05-19T23:16:11.526Z,101097.56
2023-05-19T23:19:14.510Z,101096.78
2023-05-19T23:22:17.457Z,101101.94
2023-05-19T23:25:20.291Z,101091.28
2023-05-19T23:28:23.025Z,101085.56
2023-05-19T23:31:25.984Z,101072.69
2023-05-19T23:34:29.110Z,101072.47
2023-05-19T23:37:31.926Z,101078.03
2023-05-19T23:40:34.772Z,101074.78
2023-05-19T23:43:38.003Z,101074.19
2023-05-19T23:46:41.275Z,101073.41
2023-05-19T23:49:44.226Z,101076.50
2023-05-19T23:52:48.628Z,101075.31
2023-05-19T23:55:51.755Z,101076.16
2023-05-19T23:58:54.557Z,101071.84
